gamingonlinux.com alexa rank chart, gamingonlinux.com alexa rank daily changes

gamingonlinux.com alexa rank chart, gamingonlinux.com alexa rank daily changes

gamingonlinux.com
Actual rank:
97 019

RANK HISTORY

Date Rank Diff
2017/03/25 97 019 -329
2017/03/24 97 348 -1 600
2017/03/23 98 948 -1 949
2017/03/22 100 897 +1 788
2017/03/21 99 109 -1 705
2017/03/20 100 814 -1 141
2017/03/19 101 955 -59
2017/03/18 102 014 -471
2017/03/17 102 485 -1 722
2017/03/16 104 207 -1 050
2017/03/15 105 257 -255
2017/03/14 105 512 -27
2017/03/13 105 539 -2 324
2017/03/12 107 863 +1 983
2017/03/11 105 880 -1 056
2017/03/10 106 936 -516
2017/03/09 107 452 +346
2017/03/08 107 106 -331
2017/03/07 107 437 -6 168
2017/03/06 113 605 +3 224
2017/03/01 110 381 +2 228
2017/02/28 108 153 -2 139
2017/02/27 110 292 -682
2017/02/26 110 974 +260
2017/02/25 110 714 -13
2017/02/24 110 727 -510
2017/02/23 111 237 +1 362
2017/02/22 109 875 +1 906
2017/02/21 107 969 +1 773
2017/02/20 106 196 +839
2017/02/19 105 357 -183
2017/02/18 105 540 -2 262
2017/02/17 107 802 +83
2017/02/16 107 719 -1 338
2017/02/15 109 057 +712
2017/02/14 108 345 +3 362
2017/02/13 104 983 +820
2017/02/12 104 163 -432
2017/02/11 104 595 +1 278
2017/02/10 103 317 -196
2017/02/09 103 513 -289
2017/02/08 103 802 +2 122
2017/02/07 101 680 +2 790
2017/02/06 98 890 -1 419
2017/02/05 100 309 +107
2017/02/04 100 202 +3 377
2017/02/03 96 825 +2 707
2017/02/02 94 118 -1 721
2017/02/01 95 839 +2 798
2017/01/31 93 041 +1 008
2017/01/30 92 033 +451
2017/01/29 91 582 -733
2017/01/28 92 315 +1 422
2017/01/27 90 893 +3 397
2017/01/26 87 496 +505
2017/01/25 86 991 +413
2017/01/24 86 578

WIDGET FOR YOUR SITE

DOMAINS WITH THE NEAREST RANK

Domain Rank
edutech.org 97 014
titre1.ir 97 015
arcadewow.com 97 016
mdurtk.in 97 017
chattie.pro 97 018
gamingonlinux.com 97 019
umr.com 97 020
data-vykhoda.ru 97 021
onpay.my 97 022
about-blank.kr 97 023
bithq.org 97 024

DOMAINS WITH THE NEAREST RANK BY TLD .com

Domain Rank
betterworks.com 97 008
hotstuff2017.com 97 009
templateism.com 97 011
danakhabar.com 97 012
arcadewow.com 97 016
gamingonlinux.com 97 019
umr.com 97 020
middleeastmonitor.com 97 026
ibet789.com 97 027
ges.com 97 029
culturacion.com 97 030